Portada
METAR-TAF:

METAR-TAF

Aeropuertos :

El Aaiún, Marruecos

Aeropuerto Internacional Hassan I

latitud: 27-10N, longitud: 013-12-59W, altitud: 6 m

Observación

El informe se hizo hace 40 minutos, a las 18:00 UTC
Viento 10 kt del norte-noroeste
Temperatura 19°C
Humedad 83%
Presión 1020 hPa
Visibilidad 10 km o más
Escasas nubes a una altura de 2000 ft

METAR: GMML 161800Z 33010KT 9999 FEW020 19/16 Q1020 NOSIG

Hora: 18:40 (18:40 UTC)

Pronóstico

El informe se hizo hace 1 hora y 40 minutos, a las 17:00 UTC
Pronóstico válido del 16 a las 18 UTC al 17 a las 24 UTC
Viento 12 kt del noroeste
Visibilidad 10 km o más
Nubes dispersas a una altura de 2000 ft
Nubes dispersas a una altura de 2300 ft

TAF: GMML 161700Z 1618/1724 31012KT 9999 SCT020 SCT023

Observaciones y pronósticos meteorológicos de más de 4000 aeropuertos (mensajes METAR y TAF).

Los puntos amarillos y rojos representan las estaciones disponibles.

Ponga el ratón en el punto deseado para ver el nombre de la estación.

Haga clic para ver las observaciones y los pronósticos meteorológicos.

Para cambiar el mapa : haga clic en los botones verdes con una cruz de color negro para hacer un zoom, en el botón verde con un guión para alejar o en las flechas verdes para mapas adyacentes.


METAR-TAF: